createdAt,value
2023-03-16T06:31:45.477Z,6.56
2023-03-16T06:38:29.369Z,6.72
2023-03-16T06:45:04.249Z,7.00
2023-03-16T06:48:11.121Z,6.62
2023-03-16T06:51:34.569Z,6.66
2023-03-16T06:54:44.672Z,7.00
2023-03-16T06:57:57.909Z,7.30
2023-03-16T07:01:52.508Z,7.35
2023-03-16T07:04:43.702Z,7.32
2023-03-16T07:08:37.395Z,7.51
2023-03-16T07:11:19.099Z,7.56
2023-03-16T07:14:28.222Z,7.62
2023-03-16T07:17:34.200Z,7.63
2023-03-16T07:20:44.976Z,7.60
2023-03-16T07:23:49.110Z,7.65
2023-03-16T07:26:52.887Z,7.56
2023-03-16T07:29:57.275Z,7.63
2023-03-16T07:33:02.813Z,7.68
2023-03-16T07:36:07.504Z,7.72
2023-03-16T07:39:15.126Z,8.06
2023-03-16T07:42:19.497Z,8.18
2023-03-16T07:45:24.384Z,8.01
2023-03-16T07:48:38.791Z,8.27
2023-03-16T07:51:43.274Z,8.39
2023-03-16T07:54:46.910Z,8.49
2023-03-16T07:57:54.989Z,8.62
2023-03-16T08:00:59.091Z,8.60
2023-03-16T08:04:03.249Z,8.69
2023-03-16T08:07:07.238Z,8.81
2023-03-16T08:10:14.230Z,8.35
2023-03-16T08:13:17.950Z,8.24
2023-03-16T08:16:22.205Z,8.48
2023-03-16T08:19:26.056Z,8.80
2023-03-16T08:22:30.285Z,8.98
2023-03-16T08:25:35.611Z,8.28
2023-03-16T08:28:44.024Z,7.97
2023-03-16T08:31:52.480Z,8.45
2023-03-16T08:34:58.055Z,8.42
2023-03-16T08:38:02.504Z,8.30
2023-03-16T08:41:07.959Z,8.42
2023-03-16T08:44:13.421Z,8.85
2023-03-16T08:47:17.806Z,9.25
2023-03-16T08:50:27.602Z,9.22
2023-03-16T08:53:34.539Z,8.48
2023-03-16T08:56:40.564Z,9.26
2023-03-16T08:59:50.199Z,8.96
2023-03-16T09:02:57.053Z,8.79
2023-03-16T09:06:05.430Z,8.88
2023-03-16T09:09:11.091Z,9.41
2023-03-16T09:12:17.638Z,9.84
2023-03-16T09:15:26.294Z,9.99
2023-03-16T09:18:30.676Z,9.93
2023-03-16T09:21:36.416Z,9.81
2023-03-16T09:24:44.926Z,9.42
2023-03-16T09:27:51.643Z,10.18
2023-03-16T09:30:59.914Z,10.44
2023-03-16T09:34:05.298Z,10.46
2023-03-16T09:37:09.817Z,10.34
2023-03-16T09:40:13.946Z,10.07
2023-03-16T09:43:17.828Z,9.49
2023-03-16T09:46:23.588Z,9.27
2023-03-16T09:49:32.409Z,9.74
2023-03-16T09:52:50.933Z,9.98
2023-03-16T09:55:58.161Z,9.62
2023-03-16T09:59:07.529Z,9.90
2023-03-16T10:02:11.912Z,9.23
2023-03-16T10:05:23.198Z,9.94
2023-03-16T10:08:29.511Z,10.26
2023-03-16T10:11:36.378Z,10.25
2023-03-16T10:14:40.663Z,10.52
2023-03-16T10:18:33.332Z,10.52
2023-03-16T10:21:13.525Z,10.43
2023-03-16T10:24:17.908Z,10.11
2023-03-16T10:30:53.272Z,10.71
2023-03-16T10:34:04.459Z,10.41
2023-03-16T10:37:09.122Z,10.70
2023-03-16T10:40:13.652Z,10.81
2023-03-16T10:43:18.178Z,11.05
2023-03-16T10:46:24.744Z,10.97
2023-03-16T10:49:29.958Z,10.77
2023-03-16T10:52:36.654Z,11.11
2023-03-16T10:55:44.398Z,10.77
2023-03-16T10:58:52.484Z,10.74
2023-03-16T11:01:57.977Z,10.64
2023-03-16T11:05:12.824Z,10.70
2023-03-16T11:08:30.285Z,10.74
2023-03-16T11:19:06.517Z,10.76
2023-03-16T11:21:39.858Z,10.92
2023-03-16T11:24:46.852Z,10.87
2023-03-16T11:27:53.185Z,11.12
2023-03-16T11:30:57.017Z,10.37
2023-03-16T11:34:04.562Z,10.72
2023-03-16T11:37:08.501Z,10.55
2023-03-16T11:40:13.003Z,10.62
2023-03-16T11:43:17.010Z,10.63
2023-03-16T11:46:21.009Z,10.88
2023-03-16T11:49:25.729Z,10.74
2023-03-16T11:52:29.692Z,11.00
2023-03-16T11:55:34.910Z,10.86
2023-03-16T11:58:39.433Z,11.03
2023-03-16T12:01:54.310Z,10.70
2023-03-16T12:05:06.652Z,10.22
2023-03-16T12:08:16.720Z,10.41
2023-03-16T12:11:22.083Z,10.73
2023-03-16T12:17:50.182Z,11.00
2023-03-16T12:20:56.981Z,10.93
2023-03-16T12:27:31.106Z,10.83
2023-03-16T12:32:19.036Z,10.99
2023-03-16T12:38:31.770Z,10.68
2023-03-16T12:44:36.477Z,10.46
2023-03-16T12:47:43.162Z,10.56
2023-03-16T12:54:14.426Z,11.36
2023-03-16T13:42:22.560Z,12.09
2023-03-16T13:48:56.516Z,12.41
2023-03-16T13:55:53.780Z,12.16
2023-03-16T13:59:01.991Z,12.47
2023-03-16T14:02:16.807Z,12.09
2023-03-16T14:05:22.230Z,12.37
2023-03-16T14:11:55.027Z,12.34
2023-03-16T14:15:09.775Z,12.41
2023-03-16T14:18:20.229Z,12.51
2023-03-16T14:21:33.332Z,12.41
2023-03-16T14:27:59.763Z,12.55
2023-03-16T14:31:06.857Z,12.53
2023-03-16T14:35:00.666Z,12.59
2023-03-16T14:46:04.054Z,12.58
2023-03-16T14:48:00.100Z,12.81
2023-03-16T14:51:53.878Z,12.53
2023-03-16T15:01:14.976Z,12.49
2023-03-16T15:04:22.861Z,12.52
2023-03-16T15:07:41.299Z,12.65
2023-03-16T15:14:16.913Z,12.55
2023-03-16T15:21:29.595Z,12.95
2023-03-16T15:24:19.349Z,12.84
2023-03-16T15:27:27.245Z,12.89
2023-03-16T15:40:49.464Z,12.36
2023-03-16T15:47:37.700Z,12.62
2023-03-16T15:58:23.069Z,13.03
2023-03-16T16:01:03.064Z,13.09
2023-03-16T16:04:08.504Z,13.07
2023-03-16T16:07:27.643Z,12.71
2023-03-16T16:14:00.817Z,12.94
2023-03-16T16:18:18.653Z,12.71
2023-03-16T16:20:46.794Z,12.74
2023-03-16T16:24:01.439Z,12.87
2023-03-16T16:41:24.040Z,12.81
2023-03-16T16:51:35.914Z,12.79
2023-03-16T16:55:27.669Z,12.59
2023-03-16T17:01:44.660Z,12.46
2023-03-16T17:08:17.881Z,11.95
2023-03-16T17:11:26.340Z,12.15
2023-03-16T17:14:43.887Z,12.27
2023-03-16T17:17:51.016Z,12.22
2023-03-16T17:24:27.353Z,11.93
2023-03-16T17:27:44.931Z,11.97
2023-03-16T17:30:54.795Z,11.85
2023-03-16T17:33:58.957Z,11.72
2023-03-16T17:37:02.975Z,11.61
2023-03-16T17:40:10.414Z,11.10
2023-03-16T17:43:18.923Z,11.17
2023-03-16T17:46:24.274Z,11.26
2023-03-16T17:49:32.496Z,10.90
2023-03-16T17:52:36.751Z,10.54
2023-03-16T17:55:41.399Z,10.23
2023-03-16T17:58:55.827Z,10.25
2023-03-16T18:02:00.065Z,10.10
2023-03-16T18:05:08.664Z,9.83
2023-03-16T18:08:12.805Z,10.19
2023-03-16T18:11:20.464Z,10.22
2023-03-16T18:14:24.758Z,10.27
2023-03-16T18:20:55.430Z,9.88
2023-03-16T18:24:00.050Z,10.16
2023-03-16T18:27:04.519Z,10.08
2023-03-16T18:30:10.047Z,10.35
2023-03-16T18:33:41.113Z,10.08
2023-03-16T18:36:57.013Z,10.26
2023-03-16T18:43:38.684Z,9.84
2023-03-16T18:47:37.489Z,10.04
2023-03-16T18:50:14.622Z,10.24
2023-03-16T18:53:21.114Z,10.15
2023-03-16T18:56:33.898Z,9.78
2023-03-16T19:03:05.877Z,9.18
2023-03-16T19:06:15.231Z,9.47
2023-03-16T19:09:19.503Z,9.69
2023-03-16T19:12:23.857Z,9.40
2023-03-16T19:15:38.314Z,9.42
2023-03-16T19:18:44.561Z,9.58
2023-03-16T19:21:59.143Z,9.45
2023-03-16T19:25:03.229Z,9.69
2023-03-16T19:29:45.771Z,9.68
2023-03-16T19:31:40.875Z,9.70
2023-03-16T19:35:44.742Z,9.44
2023-03-16T19:41:44.971Z,9.50
2023-03-16T19:44:58.409Z,9.64
2023-03-16T19:48:02.664Z,9.43
2023-03-16T19:51:07.530Z,9.37
2023-03-16T19:54:14.947Z,9.44
2023-03-16T19:57:21.554Z,9.44
2023-03-16T20:00:40.439Z,9.24
2023-03-16T20:03:45.179Z,9.16
2023-03-16T20:24:09.401Z,8.99
2023-03-16T20:28:16.979Z,9.33
2023-03-16T20:40:52.123Z,9.22
2023-03-16T20:44:44.766Z,9.19
2023-03-16T20:54:22.147Z,9.18
2023-03-16T20:57:49.504Z,8.70
2023-03-16T21:00:54.588Z,8.88
2023-03-16T21:04:05.157Z,8.91
2023-03-16T21:07:26.158Z,8.98
2023-03-16T21:14:49.279Z,8.92
2023-03-16T21:17:31.675Z,8.63
2023-03-16T21:31:23.076Z,7.93
2023-03-16T21:48:40.082Z,8.68
2023-03-16T21:58:29.476Z,8.76
2023-03-16T22:01:40.870Z,9.03
2023-03-16T22:09:06.956Z,8.86
2023-03-16T22:11:50.614Z,8.90
2023-03-16T22:18:22.758Z,8.60
2023-03-16T22:21:48.246Z,8.34
2023-03-16T22:25:02.504Z,8.47
2023-03-16T22:33:09.965Z,8.57
2023-03-16T22:38:52.489Z,8.78
2023-03-16T22:42:09.388Z,8.87
2023-03-16T22:55:46.837Z,8.52
2023-03-16T22:59:15.744Z,8.27
2023-03-16T23:02:18.969Z,8.06
2023-03-16T23:05:24.487Z,8.59
2023-03-16T23:09:23.080Z,8.15
2023-03-16T23:15:32.725Z,7.89
2023-03-16T23:18:42.881Z,7.48
2023-03-16T23:22:19.949Z,7.22
2023-03-16T23:25:26.155Z,7.86
2023-03-16T23:32:05.395Z,8.35
2023-03-16T23:38:40.982Z,7.62
2023-03-16T23:41:57.517Z,8.26
2023-03-16T23:45:01.909Z,8.29
2023-03-16T23:48:06.916Z,8.32
2023-03-16T23:54:37.409Z,8.42
2023-03-16T23:57:42.642Z,7.90
